Injune Post Office, Australia
Current Conditions -  °F | °C
As of 5:00 AM on Wednesday 22 Oct 2014 (Local Time) from YBCV Reporting Station
Clear Clear  
Wind Chill: 66°   Ceiling: Unl
Heat Index: 66°   Visibility: 6mi
Dew Point: 45°   Wind: 7mph
Humidity: 46%   Direction: 20°NNE
Pressure: 30.15"   Gusts: NA
Location:  25.85°S, 148.57°E
Report Text: YBCV 211900Z AUTO 02006KT 9999 // NCD 19/07 Q1021
Loading
Personal Weather Stations






























Interactive Weather Map
Tropical Storm Tracking
New forecast layout! Learn more

10-Day Weather Forecast

Advertisements
Track Severe Weather on mobile